sensor_id;sensor_type;location;lat;lon;timestamp;P1;durP1;ratioP1;P2;durP2;ratioP2
67816;SDS011;54614;47.576;7.524;2022-12-24T00:00:31;0.53;;;0.53;;
67816;SDS011;54614;47.576;7.524;2022-12-24T00:02:58;0.70;;;0.70;;
67816;SDS011;54614;47.576;7.524;2022-12-24T00:05:24;0.60;;;0.60;;
67816;SDS011;54614;47.576;7.524;2022-12-24T00:07:50;0.60;;;0.60;;
67816;SDS011;54614;47.576;7.524;2022-12-24T00:10:16;0.57;;;0.57;;
67816;SDS011;54614;47.576;7.524;2022-12-24T00:12:42;0.60;;;0.60;;
67816;SDS011;54614;47.576;7.524;2022-12-24T00:15:09;0.60;;;0.60;;
67816;SDS011;54614;47.576;7.524;2022-12-24T00:17:35;0.60;;;0.60;;
67816;SDS011;54614;47.576;7.524;2022-12-24T00:20:01;0.60;;;0.60;;
67816;SDS011;54614;47.576;7.524;2022-12-24T00:22:28;0.50;;;0.50;;
67816;SDS011;54614;47.576;7.524;2022-12-24T00:24:54;0.57;;;0.57;;
67816;SDS011;54614;47.576;7.524;2022-12-24T00:27:20;0.60;;;0.60;;
67816;SDS011;54614;47.576;7.524;2022-12-24T00:29:45;0.60;;;0.60;;
67816;SDS011;54614;47.576;7.524;2022-12-24T00:32:11;0.57;;;0.57;;
67816;SDS011;54614;47.576;7.524;2022-12-24T00:34:38;0.60;;;0.60;;
67816;SDS011;54614;47.576;7.524;2022-12-24T00:37:06;0.60;;;0.60;;
67816;SDS011;54614;47.576;7.524;2022-12-24T00:39:32;0.70;;;0.70;;
67816;SDS011;54614;47.576;7.524;2022-12-24T00:41:58;0.70;;;0.70;;
67816;SDS011;54614;47.576;7.524;2022-12-24T00:44:24;0.63;;;0.63;;
67816;SDS011;54614;47.576;7.524;2022-12-24T00:46:50;0.60;;;0.60;;
67816;SDS011;54614;47.576;7.524;2022-12-24T00:49:16;0.50;;;0.50;;
67816;SDS011;54614;47.576;7.524;2022-12-24T00:51:42;0.60;;;0.60;;
67816;SDS011;54614;47.576;7.524;2022-12-24T00:54:08;0.60;;;0.60;;
67816;SDS011;54614;47.576;7.524;2022-12-24T00:56:34;0.60;;;0.60;;
67816;SDS011;54614;47.576;7.524;2022-12-24T00:58:59;0.60;;;0.60;;
67816;SDS011;54614;47.576;7.524;2022-12-24T01:01:25;0.57;;;0.50;;
67816;SDS011;54614;47.576;7.524;2022-12-24T01:03:52;0.60;;;0.60;;
67816;SDS011;54614;47.576;7.524;2022-12-24T01:06:38;0.57;;;0.57;;
67816;SDS011;54614;47.576;7.524;2022-12-24T01:09:04;0.43;;;0.43;;
67816;SDS011;54614;47.576;7.524;2022-12-24T01:11:30;0.50;;;0.50;;
67816;SDS011;54614;47.576;7.524;2022-12-24T01:13:56;0.50;;;0.50;;
67816;SDS011;54614;47.576;7.524;2022-12-24T01:16:22;0.60;;;0.60;;
67816;SDS011;54614;47.576;7.524;2022-12-24T01:18:48;0.60;;;0.60;;
67816;SDS011;54614;47.576;7.524;2022-12-24T01:21:13;0.53;;;0.53;;
67816;SDS011;54614;47.576;7.524;2022-12-24T01:23:40;0.60;;;0.60;;
67816;SDS011;54614;47.576;7.524;2022-12-24T01:26:06;0.67;;;0.67;;
67816;SDS011;54614;47.576;7.524;2022-12-24T01:28:33;0.60;;;0.60;;
67816;SDS011;54614;47.576;7.524;2022-12-24T01:30:59;0.60;;;0.60;;
67816;SDS011;54614;47.576;7.524;2022-12-24T01:33:28;0.60;;;0.60;;
67816;SDS011;54614;47.576;7.524;2022-12-24T01:35:54;0.50;;;0.50;;
67816;SDS011;54614;47.576;7.524;2022-12-24T01:38:20;0.60;;;0.60;;
67816;SDS011;54614;47.576;7.524;2022-12-24T01:40:46;0.60;;;0.60;;
67816;SDS011;54614;47.576;7.524;2022-12-24T01:43:30;0.50;;;0.50;;
67816;SDS011;54614;47.576;7.524;2022-12-24T01:45:58;0.60;;;0.60;;
67816;SDS011;54614;47.576;7.524;2022-12-24T01:48:48;0.60;;;0.60;;
67816;SDS011;54614;47.576;7.524;2022-12-24T01:51:29;0.50;;;0.50;;
67816;SDS011;54614;47.576;7.524;2022-12-24T01:54:29;0.60;;;0.60;;
67816;SDS011;54614;47.576;7.524;2022-12-24T01:57:10;0.60;;;0.60;;
67816;SDS011;54614;47.576;7.524;2022-12-24T01:59:49;0.57;;;0.57;;
67816;SDS011;54614;47.576;7.524;2022-12-24T02:02:19;0.50;;;0.50;;
67816;SDS011;54614;47.576;7.524;2022-12-24T02:07:49;0.67;;;0.67;;
67816;SDS011;54614;47.576;7.524;2022-12-24T02:10:16;0.60;;;0.60;;
67816;SDS011;54614;47.576;7.524;2022-12-24T02:12:42;0.50;;;0.50;;
67816;SDS011;54614;47.576;7.524;2022-12-24T02:15:11;0.53;;;0.53;;
67816;SDS011;54614;47.576;7.524;2022-12-24T02:17:55;0.60;;;0.60;;
67816;SDS011;54614;47.576;7.524;2022-12-24T02:24:14;0.60;;;0.60;;
67816;SDS011;54614;47.576;7.524;2022-12-24T02:27:01;0.50;;;0.50;;
67816;SDS011;54614;47.576;7.524;2022-12-24T02:35:13;0.50;;;0.50;;
67816;SDS011;54614;47.576;7.524;2022-12-24T02:37:51;0.60;;;0.60;;
67816;SDS011;54614;47.576;7.524;2022-12-24T02:40:28;0.50;;;0.50;;
67816;SDS011;54614;47.576;7.524;2022-12-24T02:43:08;0.70;;;0.70;;
67816;SDS011;54614;47.576;7.524;2022-12-24T02:45:40;0.50;;;0.50;;
67816;SDS011;54614;47.576;7.524;2022-12-24T02:48:11;0.50;;;0.50;;
67816;SDS011;54614;47.576;7.524;2022-12-24T02:50:53;0.60;;;0.60;;
67816;SDS011;54614;47.576;7.524;2022-12-24T02:53:34;0.60;;;0.60;;
67816;SDS011;54614;47.576;7.524;2022-12-24T03:07:22;0.60;;;0.60;;
67816;SDS011;54614;47.576;7.524;2022-12-24T03:10:25;0.60;;;0.60;;
67816;SDS011;54614;47.576;7.524;2022-12-24T03:13:12;0.60;;;0.60;;
67816;SDS011;54614;47.576;7.524;2022-12-24T03:15:41;0.70;;;0.70;;
67816;SDS011;54614;47.576;7.524;2022-12-24T03:18:10;0.50;;;0.50;;
67816;SDS011;54614;47.576;7.524;2022-12-24T03:20:44;0.60;;;0.60;;
67816;SDS011;54614;47.576;7.524;2022-12-24T03:23:18;0.50;;;0.50;;
67816;SDS011;54614;47.576;7.524;2022-12-24T03:25:44;0.50;;;0.50;;
67816;SDS011;54614;47.576;7.524;2022-12-24T03:28:11;0.57;;;0.57;;
67816;SDS011;54614;47.576;7.524;2022-12-24T03:30:44;0.60;;;0.60;;
67816;SDS011;54614;47.576;7.524;2022-12-24T03:33:13;0.50;;;0.50;;
67816;SDS011;54614;47.576;7.524;2022-12-24T03:35:39;0.50;;;0.50;;
67816;SDS011;54614;47.576;7.524;2022-12-24T03:38:05;0.60;;;0.60;;
67816;SDS011;54614;47.576;7.524;2022-12-24T03:40:31;0.60;;;0.60;;
67816;SDS011;54614;47.576;7.524;2022-12-24T03:42:57;0.40;;;0.40;;
67816;SDS011;54614;47.576;7.524;2022-12-24T03:45:23;0.50;;;0.50;;
67816;SDS011;54614;47.576;7.524;2022-12-24T03:47:49;0.50;;;0.50;;
67816;SDS011;54614;47.576;7.524;2022-12-24T03:50:15;0.60;;;0.60;;
67816;SDS011;54614;47.576;7.524;2022-12-24T03:52:41;0.50;;;0.50;;
67816;SDS011;54614;47.576;7.524;2022-12-24T03:55:07;0.63;;;0.63;;
67816;SDS011;54614;47.576;7.524;2022-12-24T03:57:33;0.50;;;0.50;;
67816;SDS011;54614;47.576;7.524;2022-12-24T03:59:58;0.60;;;0.60;;
67816;SDS011;54614;47.576;7.524;2022-12-24T04:02:24;0.53;;;0.53;;
67816;SDS011;54614;47.576;7.524;2022-12-24T04:04:51;0.50;;;0.50;;
67816;SDS011;54614;47.576;7.524;2022-12-24T04:07:17;0.50;;;0.50;;
67816;SDS011;54614;47.576;7.524;2022-12-24T04:09:43;0.60;;;0.60;;
67816;SDS011;54614;47.576;7.524;2022-12-24T04:12:09;0.60;;;0.60;;
67816;SDS011;54614;47.576;7.524;2022-12-24T04:14:34;0.47;;;0.47;;
67816;SDS011;54614;47.576;7.524;2022-12-24T04:17:00;0.50;;;0.50;;
67816;SDS011;54614;47.576;7.524;2022-12-24T04:19:26;0.60;;;0.60;;
67816;SDS011;54614;47.576;7.524;2022-12-24T04:21:52;0.47;;;0.47;;
67816;SDS011;54614;47.576;7.524;2022-12-24T04:24:18;0.50;;;0.50;;
67816;SDS011;54614;47.576;7.524;2022-12-24T04:26:44;0.60;;;0.60;;
67816;SDS011;54614;47.576;7.524;2022-12-24T04:29:09;0.60;;;0.60;;
67816;SDS011;54614;47.576;7.524;2022-12-24T04:31:35;0.50;;;0.50;;
67816;SDS011;54614;47.576;7.524;2022-12-24T04:34:01;0.50;;;0.50;;
67816;SDS011;54614;47.576;7.524;2022-12-24T04:36:27;0.50;;;0.50;;
67816;SDS011;54614;47.576;7.524;2022-12-24T04:38:54;0.47;;;0.47;;
67816;SDS011;54614;47.576;7.524;2022-12-24T04:41:20;0.50;;;0.50;;
67816;SDS011;54614;47.576;7.524;2022-12-24T04:43:48;0.50;;;0.50;;
67816;SDS011;54614;47.576;7.524;2022-12-24T04:46:16;0.50;;;0.50;;
67816;SDS011;54614;47.576;7.524;2022-12-24T04:48:47;0.50;;;0.50;;
67816;SDS011;54614;47.576;7.524;2022-12-24T04:51:15;0.60;;;0.60;;
67816;SDS011;54614;47.576;7.524;2022-12-24T04:53:43;0.47;;;0.47;;
67816;SDS011;54614;47.576;7.524;2022-12-24T04:56:10;0.53;;;0.53;;
67816;SDS011;54614;47.576;7.524;2022-12-24T04:58:42;0.50;;;0.50;;
67816;SDS011;54614;47.576;7.524;2022-12-24T05:01:13;0.57;;;0.57;;
67816;SDS011;54614;47.576;7.524;2022-12-24T05:03:44;0.60;;;0.60;;
67816;SDS011;54614;47.576;7.524;2022-12-24T05:06:11;0.50;;;0.50;;
67816;SDS011;54614;47.576;7.524;2022-12-24T05:08:39;0.50;;;0.50;;
67816;SDS011;54614;47.576;7.524;2022-12-24T05:11:05;0.60;;;0.60;;
67816;SDS011;54614;47.576;7.524;2022-12-24T05:13:32;0.57;;;0.57;;
67816;SDS011;54614;47.576;7.524;2022-12-24T05:15:59;0.60;;;0.60;;
67816;SDS011;54614;47.576;7.524;2022-12-24T05:18:24;0.50;;;0.50;;
67816;SDS011;54614;47.576;7.524;2022-12-24T05:20:51;0.60;;;0.60;;
67816;SDS011;54614;47.576;7.524;2022-12-24T05:23:20;0.50;;;0.50;;
67816;SDS011;54614;47.576;7.524;2022-12-24T05:26:17;0.50;;;0.50;;
67816;SDS011;54614;47.576;7.524;2022-12-24T05:29:02;0.50;;;0.50;;
67816;SDS011;54614;47.576;7.524;2022-12-24T05:31:31;0.60;;;0.60;;
67816;SDS011;54614;47.576;7.524;2022-12-24T05:33:58;0.50;;;0.50;;
67816;SDS011;54614;47.576;7.524;2022-12-24T05:36:25;0.53;;;0.53;;
67816;SDS011;54614;47.576;7.524;2022-12-24T05:38:52;0.60;;;0.60;;
67816;SDS011;54614;47.576;7.524;2022-12-24T05:41:18;0.50;;;0.50;;
67816;SDS011;54614;47.576;7.524;2022-12-24T05:43:44;0.40;;;0.40;;
67816;SDS011;54614;47.576;7.524;2022-12-24T05:46:11;0.60;;;0.60;;
67816;SDS011;54614;47.576;7.524;2022-12-24T05:48:40;0.43;;;0.43;;
67816;SDS011;54614;47.576;7.524;2022-12-24T05:51:07;0.53;;;0.53;;
67816;SDS011;54614;47.576;7.524;2022-12-24T05:53:36;0.50;;;0.50;;
67816;SDS011;54614;47.576;7.524;2022-12-24T05:56:05;0.50;;;0.50;;
67816;SDS011;54614;47.576;7.524;2022-12-24T05:58:38;0.60;;;0.60;;
67816;SDS011;54614;47.576;7.524;2022-12-24T06:01:05;0.40;;;0.40;;
67816;SDS011;54614;47.576;7.524;2022-12-24T06:03:31;0.50;;;0.50;;
67816;SDS011;54614;47.576;7.524;2022-12-24T06:05:59;0.67;;;0.67;;
67816;SDS011;54614;47.576;7.524;2022-12-24T06:08:32;0.60;;;0.60;;
67816;SDS011;54614;47.576;7.524;2022-12-24T06:11:00;0.50;;;0.50;;
67816;SDS011;54614;47.576;7.524;2022-12-24T06:13:30;0.50;;;0.50;;
67816;SDS011;54614;47.576;7.524;2022-12-24T06:15:57;0.50;;;0.50;;
67816;SDS011;54614;47.576;7.524;2022-12-24T06:18:25;0.60;;;0.60;;
67816;SDS011;54614;47.576;7.524;2022-12-24T06:20:54;0.50;;;0.50;;
67816;SDS011;54614;47.576;7.524;2022-12-24T06:23:21;0.50;;;0.50;;
67816;SDS011;54614;47.576;7.524;2022-12-24T06:25:48;0.53;;;0.53;;
67816;SDS011;54614;47.576;7.524;2022-12-24T06:28:15;0.50;;;0.50;;
67816;SDS011;54614;47.576;7.524;2022-12-24T06:30:45;0.50;;;0.50;;
67816;SDS011;54614;47.576;7.524;2022-12-24T06:33:13;0.53;;;0.53;;
67816;SDS011;54614;47.576;7.524;2022-12-24T06:35:40;0.50;;;0.50;;
67816;SDS011;54614;47.576;7.524;2022-12-24T06:38:06;0.43;;;0.43;;
67816;SDS011;54614;47.576;7.524;2022-12-24T06:40:32;0.50;;;0.50;;
67816;SDS011;54614;47.576;7.524;2022-12-24T06:42:58;0.43;;;0.43;;
67816;SDS011;54614;47.576;7.524;2022-12-24T06:45:23;0.50;;;0.50;;
67816;SDS011;54614;47.576;7.524;2022-12-24T06:47:49;0.50;;;0.50;;
67816;SDS011;54614;47.576;7.524;2022-12-24T06:50:15;0.50;;;0.50;;
67816;SDS011;54614;47.576;7.524;2022-12-24T06:52:41;0.50;;;0.50;;
67816;SDS011;54614;47.576;7.524;2022-12-24T06:55:07;0.53;;;0.53;;
67816;SDS011;54614;47.576;7.524;2022-12-24T06:57:33;0.50;;;0.50;;
67816;SDS011;54614;47.576;7.524;2022-12-24T06:59:59;0.50;;;0.50;;
67816;SDS011;54614;47.576;7.524;2022-12-24T07:02:25;0.50;;;0.50;;
67816;SDS011;54614;47.576;7.524;2022-12-24T07:04:51;0.53;;;0.53;;
67816;SDS011;54614;47.576;7.524;2022-12-24T07:07:17;0.40;;;0.40;;
67816;SDS011;54614;47.576;7.524;2022-12-24T07:09:43;0.60;;;0.60;;
67816;SDS011;54614;47.576;7.524;2022-12-24T07:12:08;0.60;;;0.60;;
67816;SDS011;54614;47.576;7.524;2022-12-24T07:14:34;0.57;;;0.57;;
67816;SDS011;54614;47.576;7.524;2022-12-24T07:17:00;0.50;;;0.50;;
67816;SDS011;54614;47.576;7.524;2022-12-24T07:19:26;0.50;;;0.50;;
67816;SDS011;54614;47.576;7.524;2022-12-24T07:21:51;0.47;;;0.47;;
67816;SDS011;54614;47.576;7.524;2022-12-24T07:24:17;0.50;;;0.50;;
67816;SDS011;54614;47.576;7.524;2022-12-24T07:26:44;0.53;;;0.53;;
67816;SDS011;54614;47.576;7.524;2022-12-24T07:29:09;0.53;;;0.53;;
67816;SDS011;54614;47.576;7.524;2022-12-24T07:31:35;0.50;;;0.50;;
67816;SDS011;54614;47.576;7.524;2022-12-24T07:34:01;0.50;;;0.50;;
67816;SDS011;54614;47.576;7.524;2022-12-24T07:36:28;0.50;;;0.50;;
67816;SDS011;54614;47.576;7.524;2022-12-24T07:38:54;0.60;;;0.60;;
67816;SDS011;54614;47.576;7.524;2022-12-24T07:41:20;0.50;;;0.50;;
67816;SDS011;54614;47.576;7.524;2022-12-24T07:43:46;0.50;;;0.50;;
67816;SDS011;54614;47.576;7.524;2022-12-24T07:46:12;0.50;;;0.50;;
67816;SDS011;54614;47.576;7.524;2022-12-24T07:48:38;0.50;;;0.50;;
67816;SDS011;54614;47.576;7.524;2022-12-24T07:51:04;0.50;;;0.50;;
67816;SDS011;54614;47.576;7.524;2022-12-24T07:53:33;0.53;;;0.53;;
67816;SDS011;54614;47.576;7.524;2022-12-24T07:55:59;0.50;;;0.50;;
67816;SDS011;54614;47.576;7.524;2022-12-24T07:58:25;0.50;;;0.50;;
67816;SDS011;54614;47.576;7.524;2022-12-24T08:00:57;0.50;;;0.50;;
67816;SDS011;54614;47.576;7.524;2022-12-24T08:03:24;0.50;;;0.50;;
67816;SDS011;54614;47.576;7.524;2022-12-24T08:05:51;0.60;;;0.60;;
67816;SDS011;54614;47.576;7.524;2022-12-24T08:08:17;0.40;;;0.40;;
67816;SDS011;54614;47.576;7.524;2022-12-24T08:10:44;0.50;;;0.50;;
67816;SDS011;54614;47.576;7.524;2022-12-24T08:13:11;0.50;;;0.50;;
67816;SDS011;54614;47.576;7.524;2022-12-24T08:15:39;0.50;;;0.50;;
67816;SDS011;54614;47.576;7.524;2022-12-24T08:18:04;0.60;;;0.60;;
67816;SDS011;54614;47.576;7.524;2022-12-24T08:20:30;0.60;;;0.60;;
67816;SDS011;54614;47.576;7.524;2022-12-24T08:22:56;0.60;;;0.60;;
67816;SDS011;54614;47.576;7.524;2022-12-24T08:25:22;0.60;;;0.60;;
67816;SDS011;54614;47.576;7.524;2022-12-24T08:27:48;0.70;;;0.70;;
67816;SDS011;54614;47.576;7.524;2022-12-24T08:30:14;0.50;;;0.50;;
67816;SDS011;54614;47.576;7.524;2022-12-24T08:32:40;0.50;;;0.50;;
67816;SDS011;54614;47.576;7.524;2022-12-24T08:35:06;0.50;;;0.50;;
67816;SDS011;54614;47.576;7.524;2022-12-24T08:37:32;0.60;;;0.60;;
67816;SDS011;54614;47.576;7.524;2022-12-24T08:39:58;0.50;;;0.50;;
67816;SDS011;54614;47.576;7.524;2022-12-24T08:42:24;0.60;;;0.60;;
67816;SDS011;54614;47.576;7.524;2022-12-24T08:44:50;0.40;;;0.40;;
67816;SDS011;54614;47.576;7.524;2022-12-24T08:47:15;0.50;;;0.50;;
67816;SDS011;54614;47.576;7.524;2022-12-24T08:49:41;0.50;;;0.50;;
67816;SDS011;54614;47.576;7.524;2022-12-24T08:52:07;0.53;;;0.53;;
67816;SDS011;54614;47.576;7.524;2022-12-24T08:54:33;0.50;;;0.50;;
67816;SDS011;54614;47.576;7.524;2022-12-24T08:56:59;0.50;;;0.50;;
67816;SDS011;54614;47.576;7.524;2022-12-24T08:59:26;0.50;;;0.50;;
67816;SDS011;54614;47.576;7.524;2022-12-24T09:01:51;0.53;;;0.53;;
67816;SDS011;54614;47.576;7.524;2022-12-24T09:04:17;0.60;;;0.60;;
67816;SDS011;54614;47.576;7.524;2022-12-24T09:06:44;0.60;;;0.60;;
67816;SDS011;54614;47.576;7.524;2022-12-24T09:09:09;0.40;;;0.40;;
67816;SDS011;54614;47.576;7.524;2022-12-24T09:11:35;0.60;;;0.60;;
67816;SDS011;54614;47.576;7.524;2022-12-24T09:14:01;0.50;;;0.50;;
67816;SDS011;54614;47.576;7.524;2022-12-24T09:16:27;0.57;;;0.57;;
67816;SDS011;54614;47.576;7.524;2022-12-24T09:18:53;0.60;;;0.60;;
67816;SDS011;54614;47.576;7.524;2022-12-24T09:21:20;0.50;;;0.50;;
67816;SDS011;54614;47.576;7.524;2022-12-24T09:23:46;0.50;;;0.50;;
67816;SDS011;54614;47.576;7.524;2022-12-24T09:26:13;0.60;;;0.60;;
67816;SDS011;54614;47.576;7.524;2022-12-24T09:28:45;0.60;;;0.60;;
67816;SDS011;54614;47.576;7.524;2022-12-24T09:31:12;0.60;;;0.60;;
67816;SDS011;54614;47.576;7.524;2022-12-24T09:33:39;0.50;;;0.50;;
67816;SDS011;54614;47.576;7.524;2022-12-24T09:36:07;0.50;;;0.50;;
67816;SDS011;54614;47.576;7.524;2022-12-24T09:38:33;0.60;;;0.60;;
67816;SDS011;54614;47.576;7.524;2022-12-24T09:41:00;0.53;;;0.53;;
67816;SDS011;54614;47.576;7.524;2022-12-24T09:44:05;0.60;;;0.60;;
67816;SDS011;54614;47.576;7.524;2022-12-24T09:47:10;0.60;;;0.60;;
67816;SDS011;54614;47.576;7.524;2022-12-24T09:49:44;0.60;;;0.60;;
67816;SDS011;54614;47.576;7.524;2022-12-24T09:52:20;0.60;;;0.60;;
67816;SDS011;54614;47.576;7.524;2022-12-24T09:57:58;0.70;;;0.70;;
67816;SDS011;54614;47.576;7.524;2022-12-24T10:00:29;0.60;;;0.60;;
67816;SDS011;54614;47.576;7.524;2022-12-24T10:03:07;0.70;;;0.70;;
67816;SDS011;54614;47.576;7.524;2022-12-24T10:05:47;0.70;;;0.70;;
67816;SDS011;54614;47.576;7.524;2022-12-24T10:11:42;0.70;;;0.70;;
67816;SDS011;54614;47.576;7.524;2022-12-24T10:29:05;0.60;;;0.60;;
67816;SDS011;54614;47.576;7.524;2022-12-24T10:34:35;0.70;;;0.70;;
67816;SDS011;54614;47.576;7.524;2022-12-24T10:37:14;0.70;;;0.70;;
67816;SDS011;54614;47.576;7.524;2022-12-24T10:39:46;0.60;;;0.60;;
67816;SDS011;54614;47.576;7.524;2022-12-24T10:42:12;0.80;;;0.80;;
67816;SDS011;54614;47.576;7.524;2022-12-24T10:44:41;0.70;;;0.70;;
67816;SDS011;54614;47.576;7.524;2022-12-24T10:47:19;0.60;;;0.60;;
67816;SDS011;54614;47.576;7.524;2022-12-24T10:49:56;0.70;;;0.70;;
67816;SDS011;54614;47.576;7.524;2022-12-24T10:52:31;0.73;;;0.73;;
67816;SDS011;54614;47.576;7.524;2022-12-24T10:55:11;0.60;;;0.60;;
67816;SDS011;54614;47.576;7.524;2022-12-24T10:58:03;0.63;;;0.63;;
67816;SDS011;54614;47.576;7.524;2022-12-24T11:00:37;0.80;;;0.80;;
67816;SDS011;54614;47.576;7.524;2022-12-24T11:05:37;0.80;;;0.80;;
67816;SDS011;54614;47.576;7.524;2022-12-24T11:08:05;0.80;;;0.80;;
67816;SDS011;54614;47.576;7.524;2022-12-24T11:10:44;0.70;;;0.70;;
67816;SDS011;54614;47.576;7.524;2022-12-24T11:13:36;0.70;;;0.70;;
67816;SDS011;54614;47.576;7.524;2022-12-24T11:19:33;0.70;;;0.70;;
67816;SDS011;54614;47.576;7.524;2022-12-24T11:22:07;0.80;;;0.80;;
67816;SDS011;54614;47.576;7.524;2022-12-24T11:24:45;0.60;;;0.60;;
67816;SDS011;54614;47.576;7.524;2022-12-24T11:27:32;0.70;;;0.70;;
67816;SDS011;54614;47.576;7.524;2022-12-24T11:30:20;0.80;;;0.80;;
67816;SDS011;54614;47.576;7.524;2022-12-24T11:35:25;0.80;;;0.80;;
67816;SDS011;54614;47.576;7.524;2022-12-24T11:40:32;0.80;;;0.80;;
67816;SDS011;54614;47.576;7.524;2022-12-24T11:43:05;0.80;;;0.80;;
67816;SDS011;54614;47.576;7.524;2022-12-24T11:45:46;0.83;;;0.83;;
67816;SDS011;54614;47.576;7.524;2022-12-24T11:48:30;0.80;;;0.80;;
67816;SDS011;54614;47.576;7.524;2022-12-24T11:51:00;0.80;;;0.80;;
67816;SDS011;54614;47.576;7.524;2022-12-24T11:56:42;0.60;;;0.60;;
67816;SDS011;54614;47.576;7.524;2022-12-24T12:04:41;0.80;;;0.80;;
67816;SDS011;54614;47.576;7.524;2022-12-24T12:07:14;0.70;;;0.70;;
67816;SDS011;54614;47.576;7.524;2022-12-24T12:09:57;0.90;;;0.90;;
67816;SDS011;54614;47.576;7.524;2022-12-24T12:12:31;0.70;;;0.70;;
67816;SDS011;54614;47.576;7.524;2022-12-24T12:15:10;0.80;;;0.80;;
67816;SDS011;54614;47.576;7.524;2022-12-24T12:20:59;0.80;;;0.80;;
67816;SDS011;54614;47.576;7.524;2022-12-24T12:23:44;0.80;;;0.80;;
67816;SDS011;54614;47.576;7.524;2022-12-24T12:26:29;0.80;;;0.80;;
67816;SDS011;54614;47.576;7.524;2022-12-24T12:31:40;0.80;;;0.80;;
67816;SDS011;54614;47.576;7.524;2022-12-24T12:34:13;0.80;;;0.80;;
67816;SDS011;54614;47.576;7.524;2022-12-24T12:37:04;0.70;;;0.70;;
67816;SDS011;54614;47.576;7.524;2022-12-24T12:39:37;0.70;;;0.70;;
67816;SDS011;54614;47.576;7.524;2022-12-24T12:42:21;0.70;;;0.70;;
67816;SDS011;54614;47.576;7.524;2022-12-24T12:45:11;0.80;;;0.80;;
67816;SDS011;54614;47.576;7.524;2022-12-24T12:48:20;0.80;;;0.80;;
67816;SDS011;54614;47.576;7.524;2022-12-24T12:51:04;0.77;;;0.77;;
67816;SDS011;54614;47.576;7.524;2022-12-24T12:56:47;0.80;;;0.80;;
67816;SDS011;54614;47.576;7.524;2022-12-24T13:20:00;1.27;;;1.00;;
67816;SDS011;54614;47.576;7.524;2022-12-24T13:23:00;0.90;;;0.90;;
67816;SDS011;54614;47.576;7.524;2022-12-24T13:25:43;0.90;;;0.90;;
67816;SDS011;54614;47.576;7.524;2022-12-24T13:28:14;0.90;;;0.90;;
67816;SDS011;54614;47.576;7.524;2022-12-24T13:31:49;0.90;;;0.90;;
67816;SDS011;54614;47.576;7.524;2022-12-24T13:36:14;0.77;;;0.77;;
67816;SDS011;54614;47.576;7.524;2022-12-24T13:49:37;1.00;;;1.00;;
67816;SDS011;54614;47.576;7.524;2022-12-24T13:57:28;0.93;;;0.90;;
67816;SDS011;54614;47.576;7.524;2022-12-24T14:05:39;0.90;;;0.90;;
67816;SDS011;54614;47.576;7.524;2022-12-24T14:11:13;1.07;;;0.93;;
67816;SDS011;54614;47.576;7.524;2022-12-24T14:16:24;1.00;;;1.00;;
67816;SDS011;54614;47.576;7.524;2022-12-24T14:24:24;0.90;;;0.90;;
67816;SDS011;54614;47.576;7.524;2022-12-24T14:26:59;0.90;;;0.90;;
67816;SDS011;54614;47.576;7.524;2022-12-24T14:30:19;1.03;;;1.03;;
67816;SDS011;54614;47.576;7.524;2022-12-24T14:32:50;0.90;;;0.90;;
67816;SDS011;54614;47.576;7.524;2022-12-24T14:35:27;0.97;;;0.97;;
67816;SDS011;54614;47.576;7.524;2022-12-24T14:38:03;0.90;;;0.90;;
67816;SDS011;54614;47.576;7.524;2022-12-24T14:40:39;0.90;;;0.90;;
67816;SDS011;54614;47.576;7.524;2022-12-24T14:49:38;0.90;;;0.90;;
67816;SDS011;54614;47.576;7.524;2022-12-24T14:52:44;1.00;;;1.00;;
67816;SDS011;54614;47.576;7.524;2022-12-24T14:55:27;0.90;;;0.90;;
67816;SDS011;54614;47.576;7.524;2022-12-24T15:00:56;0.90;;;0.90;;
67816;SDS011;54614;47.576;7.524;2022-12-24T15:03:44;0.93;;;0.93;;
67816;SDS011;54614;47.576;7.524;2022-12-24T15:06:11;1.00;;;1.00;;
67816;SDS011;54614;47.576;7.524;2022-12-24T15:08:39;1.00;;;1.00;;
67816;SDS011;54614;47.576;7.524;2022-12-24T15:11:16;1.00;;;1.00;;
67816;SDS011;54614;47.576;7.524;2022-12-24T15:13:47;0.90;;;0.90;;
67816;SDS011;54614;47.576;7.524;2022-12-24T15:16:22;1.10;;;1.00;;
67816;SDS011;54614;47.576;7.524;2022-12-24T15:19:03;1.00;;;1.00;;
67816;SDS011;54614;47.576;7.524;2022-12-24T15:21:45;0.90;;;0.90;;
67816;SDS011;54614;47.576;7.524;2022-12-24T15:24:28;0.90;;;0.90;;
67816;SDS011;54614;47.576;7.524;2022-12-24T15:26:57;0.93;;;0.93;;
67816;SDS011;54614;47.576;7.524;2022-12-24T15:29:30;1.00;;;1.00;;
67816;SDS011;54614;47.576;7.524;2022-12-24T15:32:03;1.00;;;1.00;;
67816;SDS011;54614;47.576;7.524;2022-12-24T15:34:36;1.00;;;1.00;;
67816;SDS011;54614;47.576;7.524;2022-12-24T15:39:35;1.00;;;1.00;;
67816;SDS011;54614;47.576;7.524;2022-12-24T15:42:03;0.97;;;0.97;;
67816;SDS011;54614;47.576;7.524;2022-12-24T15:44:39;1.00;;;1.00;;
67816;SDS011;54614;47.576;7.524;2022-12-24T15:47:34;1.00;;;1.00;;
67816;SDS011;54614;47.576;7.524;2022-12-24T15:50:24;0.90;;;0.90;;
67816;SDS011;54614;47.576;7.524;2022-12-24T15:52:51;0.80;;;0.80;;
67816;SDS011;54614;47.576;7.524;2022-12-24T15:55:28;1.00;;;1.00;;
67816;SDS011;54614;47.576;7.524;2022-12-24T16:06:16;1.00;;;1.00;;
67816;SDS011;54614;47.576;7.524;2022-12-24T16:08:43;1.03;;;1.00;;
67816;SDS011;54614;47.576;7.524;2022-12-24T16:11:17;0.90;;;0.90;;
67816;SDS011;54614;47.576;7.524;2022-12-24T16:14:13;0.90;;;0.90;;
67816;SDS011;54614;47.576;7.524;2022-12-24T16:16:47;1.00;;;1.00;;
67816;SDS011;54614;47.576;7.524;2022-12-24T16:19:24;0.90;;;0.90;;
67816;SDS011;54614;47.576;7.524;2022-12-24T16:21:56;0.90;;;0.90;;
67816;SDS011;54614;47.576;7.524;2022-12-24T16:24:49;0.90;;;0.90;;
67816;SDS011;54614;47.576;7.524;2022-12-24T16:27:19;0.90;;;0.90;;
67816;SDS011;54614;47.576;7.524;2022-12-24T16:29:45;0.90;;;0.90;;
67816;SDS011;54614;47.576;7.524;2022-12-24T16:32:34;1.00;;;1.00;;
67816;SDS011;54614;47.576;7.524;2022-12-24T16:35:03;0.97;;;0.97;;
67816;SDS011;54614;47.576;7.524;2022-12-24T16:37:32;1.00;;;1.00;;
67816;SDS011;54614;47.576;7.524;2022-12-24T16:39:58;1.00;;;1.00;;
67816;SDS011;54614;47.576;7.524;2022-12-24T16:42:25;0.90;;;0.90;;
67816;SDS011;54614;47.576;7.524;2022-12-24T16:45:09;0.90;;;0.90;;
67816;SDS011;54614;47.576;7.524;2022-12-24T16:47:35;1.00;;;1.00;;
67816;SDS011;54614;47.576;7.524;2022-12-24T16:50:03;0.97;;;0.97;;
67816;SDS011;54614;47.576;7.524;2022-12-24T16:52:32;1.10;;;1.10;;
67816;SDS011;54614;47.576;7.524;2022-12-24T16:54:59;1.00;;;1.00;;
67816;SDS011;54614;47.576;7.524;2022-12-24T16:57:26;1.20;;;1.10;;
67816;SDS011;54614;47.576;7.524;2022-12-24T16:59:52;1.40;;;1.30;;
67816;SDS011;54614;47.576;7.524;2022-12-24T17:02:20;1.10;;;1.10;;
67816;SDS011;54614;47.576;7.524;2022-12-24T17:04:48;1.10;;;1.10;;
67816;SDS011;54614;47.576;7.524;2022-12-24T17:07:15;1.40;;;1.30;;
67816;SDS011;54614;47.576;7.524;2022-12-24T17:09:43;1.20;;;1.20;;
67816;SDS011;54614;47.576;7.524;2022-12-24T17:12:09;1.10;;;1.10;;
67816;SDS011;54614;47.576;7.524;2022-12-24T17:14:36;1.20;;;1.20;;
67816;SDS011;54614;47.576;7.524;2022-12-24T17:17:03;1.07;;;1.07;;
67816;SDS011;54614;47.576;7.524;2022-12-24T17:19:30;1.17;;;1.17;;
67816;SDS011;54614;47.576;7.524;2022-12-24T17:21:56;1.20;;;1.20;;
67816;SDS011;54614;47.576;7.524;2022-12-24T17:24:21;1.27;;;1.20;;
67816;SDS011;54614;47.576;7.524;2022-12-24T17:26:47;1.07;;;1.07;;
67816;SDS011;54614;47.576;7.524;2022-12-24T17:29:13;1.03;;;1.03;;
67816;SDS011;54614;47.576;7.524;2022-12-24T17:31:39;1.20;;;1.20;;
67816;SDS011;54614;47.576;7.524;2022-12-24T17:34:06;1.20;;;1.20;;
67816;SDS011;54614;47.576;7.524;2022-12-24T17:36:33;1.40;;;1.13;;
67816;SDS011;54614;47.576;7.524;2022-12-24T17:38:58;1.00;;;1.00;;
67816;SDS011;54614;47.576;7.524;2022-12-24T17:41:24;1.00;;;1.00;;
67816;SDS011;54614;47.576;7.524;2022-12-24T17:43:50;1.10;;;1.10;;